Time;durP1;ratioP1;P1;durP2;ratioP2;P2;SDS_P1;SDS_P2;PMS_P1;PMS_P2;Temp;Humidity;BMP_temperature;BMP_pressure;BME280_temperature;BME280_humidity;BME280_pressure;Samples;Min_cycle;Max_cycle;Signal;HPM_P1;HPM_P2
2023/05/19 00:01:55;;;;;;;;;;;12.60;95.00;;;;;;5114077;28;19922;-59
2023/05/19 00:04:21;;;;;;;;;;;12.60;98.70;;;;;;5119573;28;20014;-59
2023/05/19 00:06:49;;;;;;;;;;;12.60;97.60;;;;;;5120669;28;19927;-59
2023/05/19 00:09:15;;;;;;;;;;;12.60;94.90;;;;;;5120511;28;19914;-59
2023/05/19 00:11:41;;;;;;;;;;;12.50;97.30;;;;;;5119784;28;19980;-59
2023/05/19 00:14:08;;;;;;;;;;;12.50;98.30;;;;;;5120172;28;19912;-59
2023/05/19 00:16:34;;;;;;;;;;;12.40;95.50;;;;;;5118374;28;19975;-59
2023/05/19 00:19:01;;;;;;;;;;;12.50;96.90;;;;;;5103836;28;19912;-59
2023/05/19 00:21:27;;;;;;;;;;;12.40;98.80;;;;;;5119148;28;20536;-59
2023/05/19 00:23:55;;;;;;;;;;;12.40;94.30;;;;;;5119121;28;20201;-59
2023/05/19 00:26:21;;;;;;;;;;;12.40;97.90;;;;;;5119458;28;19915;-59
2023/05/19 00:28:47;;;;;;;;;;;12.40;97.80;;;;;;5118569;28;19916;-59
2023/05/19 00:31:12;;;;;;;;;;;12.40;95.70;;;;;;5118974;28;19955;-59
2023/05/19 00:33:38;;;;;;;;;;;12.30;99.10;;;;;;5105094;28;19980;-59
2023/05/19 00:36:04;;;;;;;;;;;12.30;96.90;;;;;;5118404;28;19912;-59
2023/05/19 00:38:30;;;;;;;;;;;12.30;99.90;;;;;;5103900;28;19915;-59
2023/05/19 00:40:56;;;;;;;;;;;12.30;99.90;;;;;;5114331;28;19961;-59
2023/05/19 00:43:21;;;;;;;;;;;12.20;97.40;;;;;;5120284;28;19963;-59
2023/05/19 00:45:47;;;;;;;;;;;12.20;99.90;;;;;;5117354;28;20472;-58
2023/05/19 00:48:13;;;;;;;;;;;12.10;99.90;;;;;;5115298;28;19918;-59
2023/05/19 00:50:39;;;;;;;;;;;12.20;99.90;;;;;;5117681;28;19912;-59
2023/05/19 00:53:05;;;;;;;;;;;12.10;99.40;;;;;;5120858;28;19950;-59
2023/05/19 00:55:30;;;;;;;;;;;12.10;99.40;;;;;;5113452;28;19912;-59
2023/05/19 00:57:56;;;;;;;;;;;12.00;98.20;;;;;;5110455;28;19911;-59
2023/05/19 01:00:22;;;;;;;;;;;12.00;99.60;;;;;;5110443;28;19916;-59
2023/05/19 01:02:49;;;;;;;;;;;12.00;97.50;;;;;;5113441;28;19912;-59
2023/05/19 01:05:15;;;;;;;;;;;12.00;97.10;;;;;;5117765;28;20397;-59
2023/05/19 01:07:41;;;;;;;;;;;11.90;99.90;;;;;;5120005;28;20060;-59
2023/05/19 01:10:06;;;;;;;;;;;11.90;96.30;;;;;;5118066;28;19947;-59
2023/05/19 01:12:33;;;;;;;;;;;11.90;99.90;;;;;;5094920;28;19984;-59
2023/05/19 01:14:59;;;;;;;;;;;11.80;96.80;;;;;;5119539;28;19920;-59
2023/05/19 01:17:43;;;;;;;;;;;11.80;99.90;;;;;;5114266;28;20818;-59
2023/05/19 01:20:09;;;;;;;;;;;11.80;98.40;;;;;;5117917;28;19912;-59
2023/05/19 01:22:53;;;;;;;;;;;11.80;99.90;;;;;;5118175;28;20289;-59
2023/05/19 01:25:31;;;;;;;;;;;11.80;98.00;;;;;;5119265;28;19911;-59
2023/05/19 01:28:16;;;;;;;;;;;11.70;97.20;;;;;;5114917;28;19941;-59
2023/05/19 01:30:42;;;;;;;;;;;11.70;98.80;;;;;;5117713;28;19927;-59
2023/05/19 01:33:10;;;;;;;;;;;11.70;98.60;;;;;;5118047;28;19911;-59
2023/05/19 01:35:36;;;;;;;;;;;11.60;98.50;;;;;;5113696;28;19957;-59
2023/05/19 01:38:02;;;;;;;;;;;11.60;98.80;;;;;;5119702;28;20390;-59
2023/05/19 01:40:28;;;;;;;;;;;11.60;99.90;;;;;;5116704;28;19934;-59
2023/05/19 01:42:55;;;;;;;;;;;11.60;97.20;;;;;;5105986;28;19911;-59
2023/05/19 01:45:21;;;;;;;;;;;11.60;98.00;;;;;;5107397;28;19912;-59
2023/05/19 01:47:48;;;;;;;;;;;11.50;97.30;;;;;;5117294;28;19919;-59
2023/05/19 01:50:14;;;;;;;;;;;11.50;97.90;;;;;;5117643;28;20367;-59
2023/05/19 01:52:39;;;;;;;;;;;11.50;99.90;;;;;;5097600;28;19935;-59
2023/05/19 01:55:05;;;;;;;;;;;11.50;98.30;;;;;;5109682;28;19918;-59
2023/05/19 01:57:31;;;;;;;;;;;11.50;98.90;;;;;;5118895;28;19915;-59
2023/05/19 02:00:04;;;;;;;;;;;11.50;99.90;;;;;;5116628;28;19947;-59
2023/05/19 02:02:36;;;;;;;;;;;11.50;99.90;;;;;;5112346;28;19912;-59
2023/05/19 02:05:08;;;;;;;;;;;11.50;99.90;;;;;;5105939;28;19926;-59
2023/05/19 02:07:47;;;;;;;;;;;11.50;99.90;;;;;;5116539;28;19983;-59
2023/05/19 02:10:23;;;;;;;;;;;11.50;99.90;;;;;;5116681;28;19951;-59
2023/05/19 02:12:52;;;;;;;;;;;11.40;99.90;;;;;;5114144;28;19974;-59
2023/05/19 02:15:23;;;;;;;;;;;11.50;99.90;;;;;;5111164;28;20433;-59
2023/05/19 02:17:50;;;;;;;;;;;11.50;99.70;;;;;;5113216;28;19950;-59
2023/05/19 02:20:16;;;;;;;;;;;11.50;99.90;;;;;;5106651;28;20431;-58
2023/05/19 02:22:42;;;;;;;;;;;11.40;99.90;;;;;;5114355;28;19916;-59
2023/05/19 02:25:08;;;;;;;;;;;11.50;99.90;;;;;;5116403;28;19918;-59
2023/05/19 02:27:35;;;;;;;;;;;11.40;99.90;;;;;;5116239;28;19916;-59
2023/05/19 02:30:01;;;;;;;;;;;11.40;99.90;;;;;;5116452;28;20818;-59
2023/05/19 02:32:26;;;;;;;;;;;11.40;99.90;;;;;;5117835;28;20002;-58
2023/05/19 02:34:55;;;;;;;;;;;11.30;99.90;;;;;;5115055;28;19918;-59
2023/05/19 02:37:22;;;;;;;;;;;11.40;99.90;;;;;;5115418;28;19912;-59
2023/05/19 02:39:48;;;;;;;;;;;11.30;99.90;;;;;;5116287;28;19937;-59
2023/05/19 02:42:16;;;;;;;;;;;11.30;99.90;;;;;;5117698;28;19937;-59
2023/05/19 02:44:42;;;;;;;;;;;11.30;99.90;;;;;;5115306;28;19916;-59
2023/05/19 02:47:07;;;;;;;;;;;11.30;99.90;;;;;;5115659;28;19970;-59
2023/05/19 02:49:36;;;;;;;;;;;11.30;99.90;;;;;;5104131;28;19913;-59
2023/05/19 02:52:02;;;;;;;;;;;11.30;99.90;;;;;;5110396;28;20405;-59
2023/05/19 02:54:31;;;;;;;;;;;11.30;99.90;;;;;;5116274;28;19911;-59
2023/05/19 02:56:57;;;;;;;;;;;11.30;99.90;;;;;;5115280;28;19916;-59
2023/05/19 02:59:23;;;;;;;;;;;11.30;99.90;;;;;;5096294;28;20014;-59
2023/05/19 03:01:49;;;;;;;;;;;11.20;99.90;;;;;;5116550;28;19940;-59
2023/05/19 03:04:15;;;;;;;;;;;11.20;99.90;;;;;;5116748;28;19912;-59
2023/05/19 03:06:44;;;;;;;;;;;11.10;99.90;;;;;;5113493;28;19922;-59
2023/05/19 03:09:09;;;;;;;;;;;11.20;99.90;;;;;;5113763;28;19919;-59
2023/05/19 03:11:35;;;;;;;;;;;11.10;99.90;;;;;;5115001;28;19912;-59
2023/05/19 03:14:00;;;;;;;;;;;11.10;99.90;;;;;;5117500;28;19918;-59
2023/05/19 03:16:26;;;;;;;;;;;11.10;99.90;;;;;;5115158;28;20415;-59
2023/05/19 03:18:52;;;;;;;;;;;11.10;99.90;;;;;;5116670;28;19943;-59
2023/05/19 03:21:18;;;;;;;;;;;11.10;99.90;;;;;;5115346;28;19912;-59
2023/05/19 03:23:43;;;;;;;;;;;11.10;99.90;;;;;;5118217;28;19914;-59
2023/05/19 03:26:09;;;;;;;;;;;11.10;99.90;;;;;;5112076;28;19916;-59
2023/05/19 03:28:35;;;;;;;;;;;11.10;99.90;;;;;;5115206;28;19911;-59
2023/05/19 03:31:00;;;;;;;;;;;11.10;99.90;;;;;;5116538;28;19989;-59
2023/05/19 03:33:28;;;;;;;;;;;11.00;99.90;;;;;;5119555;28;19911;-59
2023/05/19 03:35:55;;;;;;;;;;;11.10;99.90;;;;;;5114450;28;20342;-59
2023/05/19 03:38:20;;;;;;;;;;;11.00;99.90;;;;;;5121548;28;19947;-59
2023/05/19 03:40:46;;;;;;;;;;;11.00;99.90;;;;;;5118002;28;20393;-59
2023/05/19 03:43:12;;;;;;;;;;;11.00;99.90;;;;;;5111446;28;19916;-59
2023/05/19 03:45:38;;;;;;;;;;;11.00;99.90;;;;;;5118291;28;20305;-59
2023/05/19 03:48:03;;;;;;;;;;;10.90;99.90;;;;;;5119696;28;19923;-59
2023/05/19 03:50:30;;;;;;;;;;;10.90;99.90;;;;;;5101804;28;19908;-59
2023/05/19 03:52:56;;;;;;;;;;;10.90;99.90;;;;;;5111469;28;19931;-59
2023/05/19 03:55:21;;;;;;;;;;;10.90;99.90;;;;;;5113353;28;19908;-59
2023/05/19 03:57:47;;;;;;;;;;;10.90;99.90;;;;;;5122047;28;19907;-59
2023/05/19 04:00:13;;;;;;;;;;;10.90;99.90;;;;;;5117628;28;19918;-59
2023/05/19 04:02:39;;;;;;;;;;;10.90;99.90;;;;;;5111769;28;19912;-59
2023/05/19 04:05:06;;;;;;;;;;;10.90;99.90;;;;;;5106637;28;19958;-59
2023/05/19 04:07:31;;;;;;;;;;;10.90;99.90;;;;;;5114293;28;19916;-59
2023/05/19 04:09:57;;;;;;;;;;;11.00;99.90;;;;;;5108925;28;19992;-59
2023/05/19 04:12:22;;;;;;;;;;;11.00;99.90;;;;;;5117892;28;19916;-59
2023/05/19 04:14:48;;;;;;;;;;;11.10;99.90;;;;;;5119082;28;19959;-59
2023/05/19 04:17:14;;;;;;;;;;;11.10;99.90;;;;;;5119637;28;20057;-59
2023/05/19 04:19:39;;;;;;;;;;;11.10;99.90;;;;;;5105852;28;20378;-59
2023/05/19 04:22:05;;;;;;;;;;;11.10;99.90;;;;;;5101158;28;19920;-59
2023/05/19 04:24:32;;;;;;;;;;;11.10;99.90;;;;;;5115848;28;19916;-59
2023/05/19 04:27:01;;;;;;;;;;;11.10;99.90;;;;;;5118513;28;20061;-59
2023/05/19 04:29:28;;;;;;;;;;;11.10;99.90;;;;;;5120113;28;20343;-59
2023/05/19 04:31:54;;;;;;;;;;;11.10;99.90;;;;;;5119108;28;19914;-59
2023/05/19 04:34:19;;;;;;;;;;;11.10;99.90;;;;;;5109796;28;20370;-58
2023/05/19 04:36:45;;;;;;;;;;;11.00;99.90;;;;;;5111635;28;19908;-59
2023/05/19 04:39:11;;;;;;;;;;;11.00;99.90;;;;;;5117628;28;19962;-59
2023/05/19 04:41:39;;;;;;;;;;;11.00;99.90;;;;;;5120946;28;19933;-59
2023/05/19 04:44:12;;;;;;;;;;;11.00;99.90;;;;;;5120132;28;19991;-59
2023/05/19 04:46:38;;;;;;;;;;;11.00;99.90;;;;;;5112412;28;21744;-59
2023/05/19 04:49:03;;;;;;;;;;;11.00;99.90;;;;;;5111663;28;20421;-59
2023/05/19 04:51:30;;;;;;;;;;;11.00;99.90;;;;;;5117942;28;20321;-59
2023/05/19 04:53:56;;;;;;;;;;;11.00;99.90;;;;;;5117521;28;19950;-58
2023/05/19 04:56:21;;;;;;;;;;;11.00;99.90;;;;;;5120934;28;20374;-59
2023/05/19 04:58:47;;;;;;;;;;;11.10;99.90;;;;;;5117312;28;19918;-59
2023/05/19 05:01:14;;;;;;;;;;;11.10;99.90;;;;;;5119591;28;20002;-59
2023/05/19 05:03:40;;;;;;;;;;;11.10;99.90;;;;;;5116488;28;20006;-59
2023/05/19 05:06:06;;;;;;;;;;;11.10;99.90;;;;;;5118942;28;19958;-59
2023/05/19 05:08:32;;;;;;;;;;;11.10;99.90;;;;;;5119520;28;20406;-59
2023/05/19 05:10:58;;;;;;;;;;;11.20;99.90;;;;;;5117436;28;20038;-59
2023/05/19 05:13:23;;;;;;;;;;;11.20;99.90;;;;;;5119381;28;19912;-59
2023/05/19 05:15:51;;;;;;;;;;;11.30;99.90;;;;;;5119431;28;20302;-59
2023/05/19 05:18:16;;;;;;;;;;;11.30;99.90;;;;;;5116819;28;19911;-59
2023/05/19 05:20:42;;;;;;;;;;;11.30;99.90;;;;;;5113641;28;19922;-59
2023/05/19 05:23:09;;;;;;;;;;;11.40;99.90;;;;;;5098599;28;20010;-59
2023/05/19 05:25:35;;;;;;;;;;;11.40;99.90;;;;;;5104335;28;19916;-59
2023/05/19 05:28:03;;;;;;;;;;;11.40;99.90;;;;;;5099527;28;19915;-59
2023/05/19 05:30:29;;;;;;;;;;;11.50;99.90;;;;;;5111437;28;19907;-59
2023/05/19 05:32:55;;;;;;;;;;;11.50;99.90;;;;;;5119117;28;19965;-59
2023/05/19 05:35:22;;;;;;;;;;;11.60;99.90;;;;;;5119963;28;19912;-59
2023/05/19 05:37:48;;;;;;;;;;;11.70;99.90;;;;;;5114421;28;19956;-59
2023/05/19 05:40:14;;;;;;;;;;;11.70;99.90;;;;;;5118803;28;19912;-59
2023/05/19 05:42:39;;;;;;;;;;;11.80;99.90;;;;;;5118501;28;19918;-59
2023/05/19 05:45:05;;;;;;;;;;;11.80;99.90;;;;;;5108207;28;20010;-59
2023/05/19 05:47:31;;;;;;;;;;;11.80;99.90;;;;;;5121018;27;19917;-59
2023/05/19 05:49:57;;;;;;;;;;;11.80;99.90;;;;;;5117683;28;19994;-59
2023/05/19 05:52:24;;;;;;;;;;;11.90;99.90;;;;;;5118843;28;19912;-59
2023/05/19 05:54:50;;;;;;;;;;;11.90;99.90;;;;;;5115985;28;19912;-59
2023/05/19 05:57:16;;;;;;;;;;;11.90;99.90;;;;;;5116307;28;19911;-59
2023/05/19 05:59:44;;;;;;;;;;;12.00;99.90;;;;;;5109718;28;20018;-59
2023/05/19 06:02:09;;;;;;;;;;;12.00;99.90;;;;;;5102387;28;20382;-59
2023/05/19 06:04:35;;;;;;;;;;;12.10;99.90;;;;;;5107816;28;19938;-59
2023/05/19 06:07:00;;;;;;;;;;;12.10;99.90;;;;;;5115695;28;19923;-59
2023/05/19 06:09:27;;;;;;;;;;;12.20;99.90;;;;;;5104875;28;19912;-59
2023/05/19 06:11:52;;;;;;;;;;;12.20;99.90;;;;;;5098435;28;20389;-59
2023/05/19 06:14:18;;;;;;;;;;;12.20;99.90;;;;;;5103203;28;19994;-59
2023/05/19 06:16:44;;;;;;;;;;;12.20;99.90;;;;;;5097430;28;20346;-59
2023/05/19 06:19:10;;;;;;;;;;;12.30;99.90;;;;;;5113265;28;19918;-59
2023/05/19 06:21:35;;;;;;;;;;;12.40;99.90;;;;;;5114838;28;19946;-59
2023/05/19 06:24:01;;;;;;;;;;;12.50;99.90;;;;;;5115613;28;20002;-59
2023/05/19 06:26:27;;;;;;;;;;;12.50;99.90;;;;;;5114668;28;19916;-59
2023/05/19 06:28:52;;;;;;;;;;;12.60;99.90;;;;;;5118079;28;20366;-59
2023/05/19 06:31:18;;;;;;;;;;;12.60;99.90;;;;;;5107457;28;19912;-59
2023/05/19 06:33:43;;;;;;;;;;;12.70;99.90;;;;;;5104402;28;20006;-59
2023/05/19 06:36:09;;;;;;;;;;;12.70;99.90;;;;;;5108484;28;19912;-59
2023/05/19 06:38:35;;;;;;;;;;;12.80;99.90;;;;;;5112628;28;19912;-59
2023/05/19 06:41:00;;;;;;;;;;;12.80;99.90;;;;;;5114434;28;19951;-59
2023/05/19 06:43:26;;;;;;;;;;;12.80;99.90;;;;;;5115454;28;19951;-59
2023/05/19 06:45:52;;;;;;;;;;;12.90;99.90;;;;;;5108452;28;19916;-61
2023/05/19 06:48:17;;;;;;;;;;;12.90;99.90;;;;;;5117745;28;19912;-59
2023/05/19 06:50:43;;;;;;;;;;;13.00;99.90;;;;;;5115812;28;19912;-59
2023/05/19 06:53:08;;;;;;;;;;;13.10;99.90;;;;;;5099912;28;19923;-59
2023/05/19 06:55:34;;;;;;;;;;;13.20;99.90;;;;;;5116836;28;19919;-59
2023/05/19 06:58:00;;;;;;;;;;;13.30;99.90;;;;;;5118506;28;19908;-59
2023/05/19 07:00:26;;;;;;;;;;;13.40;99.90;;;;;;5111791;28;19938;-59
2023/05/19 07:02:51;;;;;;;;;;;13.50;99.90;;;;;;5097942;28;19951;-59
2023/05/19 07:05:17;;;;;;;;;;;13.60;99.90;;;;;;5113161;28;19912;-59
2023/05/19 07:07:43;;;;;;;;;;;13.70;99.90;;;;;;5102262;28;19916;-59
2023/05/19 07:10:09;;;;;;;;;;;13.70;99.90;;;;;;5080202;28;20259;-59
2023/05/19 07:12:34;;;;;;;;;;;13.80;99.90;;;;;;5101190;28;19908;-59
2023/05/19 07:15:00;;;;;;;;;;;13.80;99.90;;;;;;5117735;28;19920;-59
2023/05/19 07:17:25;;;;;;;;;;;13.90;99.90;;;;;;5122375;28;20367;-59
2023/05/19 07:19:51;;;;;;;;;;;14.00;99.90;;;;;;5122763;28;19908;-59
2023/05/19 07:22:17;;;;;;;;;;;14.00;99.90;;;;;;5122284;28;19907;-60
2023/05/19 07:24:42;;;;;;;;;;;14.10;99.90;;;;;;5120163;28;19930;-60
2023/05/19 07:27:08;;;;;;;;;;;14.20;99.90;;;;;;5121854;28;19962;-60
2023/05/19 07:29:34;;;;;;;;;;;14.30;99.90;;;;;;5121529;28;19973;-60
2023/05/19 07:31:59;;;;;;;;;;;14.30;99.90;;;;;;5122570;28;19907;-56
2023/05/19 07:34:25;;;;;;;;;;;14.40;99.90;;;;;;5103761;28;19908;-60
2023/05/19 07:36:51;;;;;;;;;;;14.50;99.90;;;;;;5107997;28;19912;-58
2023/05/19 07:39:17;;;;;;;;;;;14.60;99.90;;;;;;5101572;28;19930;-58
2023/05/19 07:41:42;;;;;;;;;;;14.60;99.90;;;;;;5101694;28;19919;-58
2023/05/19 07:44:09;;;;;;;;;;;14.50;99.90;;;;;;5120569;28;19918;-58
2023/05/19 07:46:36;;;;;;;;;;;14.50;99.90;;;;;;5119533;28;19948;-57
2023/05/19 07:49:02;;;;;;;;;;;14.50;99.90;;;;;;5121682;28;19908;-58
2023/05/19 07:51:28;;;;;;;;;;;14.60;99.90;;;;;;5121949;28;19914;-57
2023/05/19 07:53:53;;;;;;;;;;;14.60;99.90;;;;;;5121927;28;19908;-57
2023/05/19 07:56:20;;;;;;;;;;;14.70;99.90;;;;;;5120083;28;20286;-57
2023/05/19 07:58:49;;;;;;;;;;;14.80;99.90;;;;;;5121337;28;19957;-58
2023/05/19 08:01:15;;;;;;;;;;;14.90;99.90;;;;;;5121410;28;20002;-58
2023/05/19 08:03:43;;;;;;;;;;;15.00;99.90;;;;;;5121625;28;19996;-58
2023/05/19 08:06:09;;;;;;;;;;;15.00;99.90;;;;;;5120849;28;19996;-58
2023/05/19 08:08:35;;;;;;;;;;;15.20;99.90;;;;;;5118878;28;19954;-57
2023/05/19 08:11:02;;;;;;;;;;;15.30;99.90;;;;;;5118351;28;19974;-58
2023/05/19 08:13:28;;;;;;;;;;;15.40;99.90;;;;;;5101001;28;19978;-57
2023/05/19 08:15:58;;;;;;;;;;;15.40;99.90;;;;;;5100963;28;19924;-58
2023/05/19 08:18:24;;;;;;;;;;;15.50;99.90;;;;;;5111319;28;20010;-58
2023/05/19 08:20:50;;;;;;;;;;;15.60;99.90;;;;;;5120871;28;19920;-58
2023/05/19 08:23:16;;;;;;;;;;;15.60;99.90;;;;;;5120647;28;19908;-57
2023/05/19 08:25:42;;;;;;;;;;;15.60;99.90;;;;;;5121163;28;20446;-58
2023/05/19 08:28:08;;;;;;;;;;;15.70;99.90;;;;;;5118613;28;20010;-58
2023/05/19 08:30:34;;;;;;;;;;;15.70;99.90;;;;;;5120002;28;20363;-58
2023/05/19 08:33:00;;;;;;;;;;;15.70;99.90;;;;;;5121583;28;19930;-57
2023/05/19 08:35:25;;;;;;;;;;;15.80;99.90;;;;;;5120934;28;20320;-58
2023/05/19 08:37:51;;;;;;;;;;;15.80;99.90;;;;;;5117338;28;19972;-58
2023/05/19 08:40:17;;;;;;;;;;;16.00;99.90;;;;;;5090440;28;19911;-58
2023/05/19 08:42:46;;;;;;;;;;;16.10;99.90;;;;;;5114493;28;20279;-58
2023/05/19 08:45:12;;;;;;;;;;;16.10;99.90;;;;;;5120498;28;19907;-57
2023/05/19 08:47:40;;;;;;;;;;;16.60;99.90;;;;;;5115891;28;20383;-57
2023/05/19 08:50:06;;;;;;;;;;;16.20;99.90;;;;;;5106498;28;19927;-57
2023/05/19 08:52:32;;;;;;;;;;;16.10;99.90;;;;;;5119337;28;19911;-58
2023/05/19 08:55:08;;;;;;;;;;;16.20;99.90;;;;;;5120410;28;19908;-57
2023/05/19 08:57:35;;;;;;;;;;;16.20;99.90;;;;;;5119366;28;19912;-58
2023/05/19 09:00:02;;;;;;;;;;;16.30;99.90;;;;;;5099690;28;19943;-58
2023/05/19 09:02:27;;;;;;;;;;;16.40;99.90;;;;;;5119547;28;19916;-57
2023/05/19 09:04:55;;;;;;;;;;;16.50;99.90;;;;;;5098416;28;19920;-58
2023/05/19 09:07:21;;;;;;;;;;;16.60;99.90;;;;;;5119676;28;19919;-57
2023/05/19 09:09:47;;;;;;;;;;;16.60;99.90;;;;;;5120179;28;19908;-58
2023/05/19 09:12:13;;;;;;;;;;;16.60;99.90;;;;;;5116319;28;20267;-57
2023/05/19 09:14:39;;;;;;;;;;;16.70;99.90;;;;;;5119038;28;19923;-58
2023/05/19 09:17:05;;;;;;;;;;;16.80;99.90;;;;;;5120076;28;19908;-57
2023/05/19 09:19:31;;;;;;;;;;;16.90;99.90;;;;;;5118274;28;19957;-58
2023/05/19 09:21:58;;;;;;;;;;;17.00;99.90;;;;;;5109346;28;19916;-57
2023/05/19 09:24:24;;;;;;;;;;;17.20;99.90;;;;;;5119976;28;19994;-57
2023/05/19 09:26:50;;;;;;;;;;;17.40;99.90;;;;;;5118847;28;19924;-58
2023/05/19 09:29:16;;;;;;;;;;;17.50;99.90;;;;;;5119757;28;20401;-58
2023/05/19 09:31:49;;;;;;;;;;;17.70;99.90;;;;;;5118052;28;19999;-58
2023/05/19 09:34:15;;;;;;;;;;;17.80;99.90;;;;;;5117913;28;19914;-58
2023/05/19 09:36:43;;;;;;;;;;;18.00;99.90;;;;;;5119520;28;19930;-57
2023/05/19 09:39:15;;;;;;;;;;;18.20;99.90;;;;;;5119862;28;19930;-58
2023/05/19 09:41:41;;;;;;;;;;;18.30;99.90;;;;;;5119409;28;19951;-58
2023/05/19 09:44:11;;;;;;;;;;;18.50;99.90;;;;;;5116884;28;19933;-58
2023/05/19 09:46:37;;;;;;;;;;;18.60;99.90;;;;;;5119389;28;19912;-57
2023/05/19 09:49:09;;;;;;;;;;;18.80;99.90;;;;;;5119221;28;19912;-58
2023/05/19 09:51:36;;;;;;;;;;;19.00;99.90;;;;;;5119503;28;19908;-58
2023/05/19 09:54:01;;;;;;;;;;;19.20;99.90;;;;;;5115512;28;19918;-58
2023/05/19 09:56:31;;;;;;;;;;;19.40;99.00;;;;;;5108301;28;19912;-58
2023/05/19 09:58:57;;;;;;;;;;;19.80;99.90;;;;;;5098883;28;19915;-57
2023/05/19 10:01:23;;;;;;;;;;;20.20;99.90;;;;;;5099201;28;19908;-58
2023/05/19 10:03:49;;;;;;;;;;;20.90;99.90;;;;;;5100147;28;19959;-58
2023/05/19 10:06:15;;;;;;;;;;;21.80;99.90;;;;;;5098629;28;19994;-58
2023/05/19 10:08:41;;;;;;;;;;;22.50;99.90;;;;;;5109629;28;19996;-57
2023/05/19 10:11:07;;;;;;;;;;;23.20;91.20;;;;;;5100310;28;20275;-58
2023/05/19 10:13:34;;;;;;;;;;;23.90;99.20;;;;;;5119370;28;19919;-58
2023/05/19 10:16:00;;;;;;;;;;;24.60;91.90;;;;;;5100655;28;19994;-58
2023/05/19 10:18:28;;;;;;;;;;;24.90;96.30;;;;;;5096879;28;19912;-58
2023/05/19 10:20:56;;;;;;;;;;;24.60;70.20;;;;;;5117923;28;19957;-58
2023/05/19 10:23:22;;;;;;;;;;;25.00;68.40;;;;;;5118784;28;20618;-58
2023/05/19 10:25:50;;;;;;;;;;;25.30;69.30;;;;;;5118212;28;19911;-58
2023/05/19 10:28:19;;;;;;;;;;;24.90;69.10;;;;;;5118581;28;19919;-58
2023/05/19 10:30:46;;;;;;;;;;;24.80;64.90;;;;;;5116602;28;19951;-58
2023/05/19 10:33:16;;;;;;;;;;;25.40;75.20;;;;;;5118717;28;19931;-58
2023/05/19 10:36:07;;;;;;;;;;;26.00;71.20;;;;;;5118295;28;19915;-58
2023/05/19 10:38:41;;;;;;;;;;;26.60;60.10;;;;;;5118322;28;19908;-58
2023/05/19 10:41:25;;;;;;;;;;;27.70;68.10;;;;;;5116763;28;19911;-58
2023/05/19 10:44:00;;;;;;;;;;;27.80;54.10;;;;;;5118290;28;19908;-58
2023/05/19 10:46:27;;;;;;;;;;;27.60;59.40;;;;;;5099747;28;19965;-58
2023/05/19 10:48:52;;;;;;;;;;;28.10;61.10;;;;;;5099712;28;20011;-58
2023/05/19 10:51:18;;;;;;;;;;;29.40;59.60;;;;;;5116336;28;19950;-58
2023/05/19 10:53:48;;;;;;;;;;;30.10;55.80;;;;;;5118344;28;19912;-58
2023/05/19 10:56:32;;;;;;;;;;;30.40;53.70;;;;;;5117711;28;19912;-58
2023/05/19 10:58:58;;;;;;;;;;;30.20;50.70;;;;;;5118342;28;19907;-59
2023/05/19 11:01:34;;;;;;;;;;;30.50;52.20;;;;;;5116278;28;19912;-58
2023/05/19 11:04:07;;;;;;;;;;;30.10;49.10;;;;;;5117462;28;19912;-58
2023/05/19 11:06:37;;;;;;;;;;;29.60;47.00;;;;;;5118082;28;19918;-58
2023/05/19 11:09:13;;;;;;;;;;;29.80;46.80;;;;;;5117479;28;20288;-58
2023/05/19 11:11:49;;;;;;;;;;;30.20;51.00;;;;;;5117160;28;19912;-58
2023/05/19 11:14:19;;;;;;;;;;;29.70;46.70;;;;;;5099973;28;19952;-58
2023/05/19 11:16:46;;;;;;;;;;;29.40;46.50;;;;;;5118026;28;19968;-58
2023/05/19 11:19:31;;;;;;;;;;;29.30;48.40;;;;;;5118400;28;19950;-58
2023/05/19 11:22:08;;;;;;;;;;;29.30;43.40;;;;;;5115974;28;19911;-58
2023/05/19 11:24:38;;;;;;;;;;;29.70;46.50;;;;;;5117859;28;19919;-58
2023/05/19 11:27:22;;;;;;;;;;;29.00;44.30;;;;;;5118248;28;19918;-57
2023/05/19 11:29:48;;;;;;;;;;;29.10;45.30;;;;;;5118083;28;20319;-58
2023/05/19 11:32:14;;;;;;;;;;;29.30;43.40;;;;;;5116174;28;19916;-58
2023/05/19 11:34:40;;;;;;;;;;;29.80;45.70;;;;;;5118030;28;19919;-58
2023/05/19 11:37:07;;;;;;;;;;;29.90;42.00;;;;;;5117867;28;19908;-57
2023/05/19 11:39:33;;;;;;;;;;;29.70;40.00;;;;;;5107955;28;20004;-57
2023/05/19 11:41:59;;;;;;;;;;;29.50;43.40;;;;;;5097896;28;19998;-58
2023/05/19 11:44:25;;;;;;;;;;;29.80;41.70;;;;;;5110268;28;19946;-58
2023/05/19 11:46:50;;;;;;;;;;;30.60;42.40;;;;;;5118405;28;19915;-58
2023/05/19 11:49:16;;;;;;;;;;;31.30;40.50;;;;;;5117883;28;19908;-58
2023/05/19 11:51:42;;;;;;;;;;;31.40;43.00;;;;;;5118378;28;20373;-57
2023/05/19 11:54:11;;;;;;;;;;;31.20;40.70;;;;;;5115654;28;19914;-58
2023/05/19 11:56:40;;;;;;;;;;;31.40;42.00;;;;;;5117695;28;19998;-57
2023/05/19 11:59:07;;;;;;;;;;;30.60;36.80;;;;;;5121426;28;19996;-57
2023/05/19 12:01:33;;;;;;;;;;;30.00;39.90;;;;;;5122155;28;20404;-58
2023/05/19 12:03:58;;;;;;;;;;;30.00;41.10;;;;;;5119586;28;20371;-58
2023/05/19 12:06:25;;;;;;;;;;;30.10;39.00;;;;;;5121706;28;19938;-58
2023/05/19 12:08:51;;;;;;;;;;;30.20;40.50;;;;;;5121006;28;20003;-58
2023/05/19 12:11:17;;;;;;;;;;;29.70;38.10;;;;;;5120930;28;19912;-58
2023/05/19 12:13:43;;;;;;;;;;;29.80;39.20;;;;;;5120544;28;19912;-57
2023/05/19 12:16:08;;;;;;;;;;;29.80;39.60;;;;;;5117982;28;19919;-58
2023/05/19 12:18:37;;;;;;;;;;;29.40;39.50;;;;;;5120205;28;19908;-58
2023/05/19 12:21:03;;;;;;;;;;;29.10;38.30;;;;;;5119802;28;19912;-58
2023/05/19 12:23:29;;;;;;;;;;;29.60;42.00;;;;;;5120552;28;19912;-58
2023/05/19 12:25:56;;;;;;;;;;;29.80;36.60;;;;;;5117282;28;20439;-58
2023/05/19 12:28:22;;;;;;;;;;;29.50;38.40;;;;;;5117712;28;19927;-58
2023/05/19 12:30:50;;;;;;;;;;;29.70;37.20;;;;;;5120008;28;20279;-58
2023/05/19 12:33:20;;;;;;;;;;;29.70;38.20;;;;;;5120909;28;19915;-58
2023/05/19 12:35:48;;;;;;;;;;;30.00;38.80;;;;;;5120296;28;20294;-58
2023/05/19 12:38:14;;;;;;;;;;;30.20;36.90;;;;;;5118797;28;20010;-58
2023/05/19 12:40:40;;;;;;;;;;;30.40;36.80;;;;;;5121817;28;20011;-58
2023/05/19 12:43:08;;;;;;;;;;;29.80;35.80;;;;;;5120923;28;19908;-58
2023/05/19 12:45:34;;;;;;;;;;;29.50;37.40;;;;;;5121096;28;19908;-58
2023/05/19 12:48:04;;;;;;;;;;;29.80;37.30;;;;;;5100520;28;19974;-58
2023/05/19 12:50:30;;;;;;;;;;;29.60;37.70;;;;;;5117876;28;19936;-58
2023/05/19 12:52:57;;;;;;;;;;;29.70;38.00;;;;;;5119363;28;19958;-58
2023/05/19 12:55:23;;;;;;;;;;;30.10;37.10;;;;;;5120706;28;19908;-57
2023/05/19 12:57:55;;;;;;;;;;;30.00;39.40;;;;;;5119665;28;20420;-58
2023/05/19 13:00:24;;;;;;;;;;;30.20;37.60;;;;;;5119205;28;19919;-57
2023/05/19 13:03:00;;;;;;;;;;;29.50;37.50;;;;;;5118845;28;19942;-57
2023/05/19 13:05:29;;;;;;;;;;;28.70;34.60;;;;;;5120188;28;20343;-58
2023/05/19 13:08:00;;;;;;;;;;;28.70;36.60;;;;;;5120444;28;19912;-58
2023/05/19 13:10:26;;;;;;;;;;;28.90;35.60;;;;;;5117714;28;19994;-58
2023/05/19 13:12:55;;;;;;;;;;;28.40;34.40;;;;;;5119962;28;20435;-57
2023/05/19 13:15:22;;;;;;;;;;;28.70;36.90;;;;;;5120005;28;19999;-57
2023/05/19 13:17:47;;;;;;;;;;;29.30;36.80;;;;;;5119300;28;20457;-57
2023/05/19 13:20:13;;;;;;;;;;;29.10;35.40;;;;;;5118193;28;19969;-57
2023/05/19 13:22:39;;;;;;;;;;;29.00;35.90;;;;;;5119990;28;20017;-57
2023/05/19 13:25:05;;;;;;;;;;;29.00;34.70;;;;;;5119812;28;19908;-57
2023/05/19 13:27:30;;;;;;;;;;;29.20;36.70;;;;;;5118767;28;19980;-58
2023/05/19 13:29:56;;;;;;;;;;;28.70;34.90;;;;;;5119263;28;19912;-57
2023/05/19 13:32:22;;;;;;;;;;;28.50;33.80;;;;;;5117009;28;20455;-58
2023/05/19 13:34:48;;;;;;;;;;;27.90;32.90;;;;;;5120030;28;19908;-57
2023/05/19 13:37:14;;;;;;;;;;;27.70;35.50;;;;;;5119803;28;19908;-57
2023/05/19 13:39:40;;;;;;;;;;;27.70;36.30;;;;;;5118414;28;19912;-57
2023/05/19 13:42:05;;;;;;;;;;;27.70;35.70;;;;;;5119685;28;20374;-57
2023/05/19 13:44:31;;;;;;;;;;;26.70;34.70;;;;;;5120090;28;19908;-57
2023/05/19 13:46:57;;;;;;;;;;;27.00;35.30;;;;;;5106922;28;19978;-57
2023/05/19 13:49:22;;;;;;;;;;;26.60;34.00;;;;;;5105198;28;19951;-57
2023/05/19 13:51:48;;;;;;;;;;;26.90;35.00;;;;;;5119951;28;20004;-57
2023/05/19 13:54:14;;;;;;;;;;;26.90;35.60;;;;;;5119436;28;20367;-56
2023/05/19 13:56:40;;;;;;;;;;;26.40;34.40;;;;;;5119875;28;19994;-57
2023/05/19 13:59:05;;;;;;;;;;;26.30;34.90;;;;;;5117458;28;19908;-57
2023/05/19 14:01:31;;;;;;;;;;;26.60;34.40;;;;;;5101468;28;19916;-57
2023/05/19 14:03:57;;;;;;;;;;;26.90;34.80;;;;;;5098807;28;20019;-58
2023/05/19 14:06:22;;;;;;;;;;;26.90;34.90;;;;;;5098867;28;19965;-58
2023/05/19 14:08:48;;;;;;;;;;;27.00;33.60;;;;;;5099131;28;20393;-57
2023/05/19 14:11:18;;;;;;;;;;;27.10;34.40;;;;;;5112855;28;20329;-57
2023/05/19 14:13:44;;;;;;;;;;;26.80;33.70;;;;;;5111424;28;19912;-57
2023/05/19 14:16:10;;;;;;;;;;;26.80;33.30;;;;;;5100209;28;19924;-57